createdAt,value
2018-07-24T00:01:27.862Z,100.00
2018-07-24T00:03:57.869Z,100.00
2018-07-24T00:06:26.940Z,100.00
2018-07-24T00:08:55.999Z,100.00
2018-07-24T00:11:36.025Z,100.00
2018-07-24T00:14:05.103Z,100.00
2018-07-24T00:16:34.170Z,100.00
2018-07-24T00:19:03.263Z,100.00
2018-07-24T00:21:32.329Z,100.00
2018-07-24T00:24:03.304Z,100.00
2018-07-24T00:26:32.386Z,100.00
2018-07-24T00:31:37.243Z,100.00
2018-07-24T00:39:17.961Z,100.00
2018-07-24T00:44:22.906Z,100.00
2018-07-24T00:47:06.281Z,100.00
2018-07-24T00:49:48.366Z,100.00
2018-07-24T00:52:17.437Z,100.00
2018-07-24T00:54:46.514Z,100.00
2018-07-24T00:57:15.604Z,100.00
2018-07-24T00:59:46.674Z,100.00
2018-07-24T01:02:23.617Z,100.00
2018-07-24T01:05:03.458Z,100.00
2018-07-24T01:07:33.478Z,100.00
2018-07-24T01:10:03.503Z,100.00
2018-07-24T01:12:33.529Z,100.00
2018-07-24T01:15:02.605Z,100.00
2018-07-24T01:17:31.671Z,100.00
2018-07-24T01:20:00.741Z,100.00
2018-07-24T01:22:29.817Z,100.00
2018-07-24T01:24:59.837Z,100.00
2018-07-24T01:30:04.613Z,100.00
2018-07-24T01:35:09.464Z,100.00
2018-07-24T01:37:42.853Z,100.00
2018-07-24T01:40:15.419Z,100.00
2018-07-24T01:42:44.505Z,100.00
2018-07-24T01:47:49.308Z,100.00
2018-07-24T01:52:54.213Z,100.00
2018-07-24T01:57:58.997Z,100.00
2018-07-24T02:03:03.847Z,100.00
2018-07-24T02:05:33.846Z,100.00
2018-07-24T02:08:02.907Z,100.00
2018-07-24T02:14:33.627Z,100.00
2018-07-24T02:17:03.690Z,100.00
2018-07-24T02:19:33.676Z,100.00
2018-07-24T02:22:03.725Z,100.00
2018-07-24T02:24:42.330Z,100.00
2018-07-24T02:27:12.313Z,100.00
2018-07-24T02:29:41.494Z,100.00
2018-07-24T02:32:10.727Z,100.00
2018-07-24T02:34:40.833Z,100.00
2018-07-24T02:37:09.899Z,100.00
2018-07-24T02:39:45.054Z,100.00
2018-07-24T02:42:14.119Z,100.00
2018-07-24T02:44:43.281Z,100.00
2018-07-24T02:47:12.358Z,100.00
2018-07-24T02:49:41.404Z,100.00
2018-07-24T02:52:10.459Z,100.00
2018-07-24T02:54:40.538Z,100.00
2018-07-24T02:57:09.613Z,100.00
2018-07-24T02:59:38.731Z,100.00
2018-07-24T03:04:43.502Z,100.00
2018-07-24T03:07:14.546Z,100.00
2018-07-24T03:09:43.819Z,100.00
2018-07-24T03:14:49.617Z,100.00
2018-07-24T03:17:19.685Z,100.00
2018-07-24T03:19:48.755Z,100.00
2018-07-24T03:24:53.607Z,100.00
2018-07-24T03:29:58.455Z,100.00
2018-07-24T03:32:27.523Z,100.00
2018-07-24T03:34:57.541Z,100.00
2018-07-24T03:37:28.598Z,100.00
2018-07-24T03:39:57.658Z,100.00
2018-07-24T03:42:26.814Z,100.00
2018-07-24T03:47:31.661Z,100.00
2018-07-24T03:50:01.721Z,100.00
2018-07-24T03:52:30.774Z,100.00
2018-07-24T03:55:00.794Z,100.00
2018-07-24T03:57:29.865Z,100.00
2018-07-24T04:00:10.142Z,100.00
2018-07-24T04:02:39.232Z,100.00
2018-07-24T04:10:23.785Z,100.00
2018-07-24T04:12:52.868Z,100.00
2018-07-24T04:15:21.933Z,100.00
2018-07-24T04:17:51.077Z,100.00
2018-07-24T04:22:57.911Z,100.00
2018-07-24T04:25:27.958Z,100.00
2018-07-24T04:27:57.196Z,100.00
2018-07-24T04:30:26.463Z,100.00
2018-07-24T04:35:31.824Z,100.00
2018-07-24T04:38:01.846Z,100.00
2018-07-24T04:40:42.832Z,100.00
2018-07-24T04:43:19.886Z,100.00
2018-07-24T04:51:08.073Z,100.00
2018-07-24T04:53:37.376Z,100.00
2018-07-24T04:56:06.822Z,100.00
2018-07-24T04:58:35.882Z,100.00
2018-07-24T05:01:04.986Z,100.00
2018-07-24T05:03:45.540Z,100.00
2018-07-24T05:08:50.305Z,100.00
2018-07-24T05:16:31.014Z,100.00
2018-07-24T05:19:03.273Z,100.00
2018-07-24T05:21:34.309Z,100.00
2018-07-24T05:24:05.341Z,100.00
2018-07-24T05:26:34.581Z,100.00
2018-07-24T05:29:12.482Z,100.00
2018-07-24T05:34:21.142Z,100.00
2018-07-24T05:36:50.544Z,100.00
2018-07-24T05:39:19.709Z,100.00
2018-07-24T05:41:49.728Z,100.00
2018-07-24T05:44:19.989Z,100.00
2018-07-24T05:46:49.174Z,100.00
2018-07-24T05:49:18.278Z,100.00
2018-07-24T05:54:24.149Z,100.00
2018-07-24T05:56:53.216Z,100.00
2018-07-24T05:59:22.304Z,100.00
2018-07-24T06:01:51.846Z,100.00
2018-07-24T06:04:24.837Z,100.00
2018-07-24T06:09:29.789Z,100.00
2018-07-24T06:11:59.286Z,100.00
2018-07-24T06:14:31.081Z,100.00
2018-07-24T06:17:07.771Z,100.00
2018-07-24T06:19:38.098Z,100.00
2018-07-24T06:22:07.337Z,100.00
2018-07-24T06:24:36.422Z,100.00
2018-07-24T06:27:05.500Z,100.00
2018-07-24T06:29:35.101Z,100.00
2018-07-24T06:32:04.213Z,100.00
2018-07-24T06:34:35.208Z,100.00
2018-07-24T06:37:14.172Z,100.00
2018-07-24T06:39:43.475Z,100.00
2018-07-24T06:47:24.065Z,98.90
2018-07-24T06:49:54.409Z,96.21
2018-07-24T06:52:23.465Z,94.07
2018-07-24T06:54:56.797Z,93.39
2018-07-24T06:57:26.881Z,93.60
2018-07-24T06:59:57.936Z,93.63
2018-07-24T07:02:27.216Z,92.43
2018-07-24T07:07:32.049Z,91.43
2018-07-24T07:10:01.326Z,90.53
2018-07-24T07:12:30.403Z,91.27
2018-07-24T07:14:59.452Z,91.33
2018-07-24T07:17:29.806Z,87.44
2018-07-24T07:19:59.085Z,90.52
2018-07-24T07:22:28.121Z,85.77
2018-07-24T07:27:32.981Z,88.49
2018-07-24T07:30:02.053Z,84.58
2018-07-24T07:32:31.515Z,80.55
2018-07-24T07:37:37.022Z,77.81
2018-07-24T07:40:06.041Z,81.91
2018-07-24T07:45:10.986Z,76.46
2018-07-24T07:47:40.022Z,77.71
2018-07-24T07:50:10.002Z,77.71
2018-07-24T07:52:46.989Z,79.35
2018-07-24T07:57:52.092Z,74.31
2018-07-24T08:00:21.130Z,76.03
2018-07-24T08:02:50.193Z,76.48
2018-07-24T08:05:19.534Z,72.41
2018-07-24T08:10:24.414Z,69.25
2018-07-24T08:12:53.463Z,68.83
2018-07-24T08:17:58.269Z,69.62
2018-07-24T08:20:27.344Z,68.84
2018-07-24T08:25:35.770Z,69.35
2018-07-24T08:28:05.836Z,67.50
2018-07-24T08:30:38.270Z,68.38
2018-07-24T08:38:19.926Z,64.10
2018-07-24T08:40:48.980Z,66.01
2018-07-24T08:43:18.041Z,60.19
2018-07-24T08:45:47.106Z,62.48
2018-07-24T08:48:16.663Z,58.49
2018-07-24T08:53:22.020Z,59.50
2018-07-24T08:55:50.846Z,61.72
2018-07-24T08:58:19.902Z,59.40
2018-07-24T09:00:48.966Z,57.74
2018-07-24T09:05:55.352Z,55.32
2018-07-24T09:08:25.566Z,57.35
2018-07-24T09:10:54.712Z,58.52
2018-07-24T09:13:24.713Z,53.80
2018-07-24T09:15:53.809Z,57.43
2018-07-24T09:18:24.843Z,58.76
2018-07-24T09:20:55.929Z,54.69
2018-07-24T09:23:24.940Z,56.43
2018-07-24T09:28:29.999Z,48.56
2018-07-24T09:30:59.165Z,47.60
2018-07-24T09:33:30.177Z,48.76
2018-07-24T09:35:59.241Z,49.01
2018-07-24T09:38:28.378Z,44.64
2018-07-24T09:40:57.439Z,43.75
2018-07-24T09:43:26.485Z,43.82
2018-07-24T09:45:55.919Z,42.28
2018-07-24T09:48:24.938Z,41.11
2018-07-24T09:50:53.988Z,36.82
2018-07-24T09:53:23.277Z,40.77
2018-07-24T09:55:52.377Z,41.42
2018-07-24T09:58:21.433Z,37.53
2018-07-24T10:00:51.407Z,38.76
2018-07-24T10:03:21.731Z,39.63
2018-07-24T10:05:50.784Z,43.13
2018-07-24T10:10:55.919Z,36.85
2018-07-24T10:16:00.366Z,37.07
2018-07-24T10:21:05.199Z,35.74
2018-07-24T10:23:34.265Z,35.50
2018-07-24T10:26:04.297Z,32.55
2018-07-24T10:28:33.628Z,33.73
2018-07-24T10:31:03.690Z,37.78
2018-07-24T10:36:08.713Z,34.21
2018-07-24T10:38:37.779Z,34.00
2018-07-24T10:41:06.798Z,36.31
2018-07-24T10:43:35.888Z,34.41
2018-07-24T10:48:41.062Z,31.65
2018-07-24T10:51:10.093Z,34.85
2018-07-24T10:53:39.160Z,34.33
2018-07-24T10:56:12.337Z,33.00
2018-07-24T11:03:55.833Z,31.77
2018-07-24T11:09:01.581Z,31.29
2018-07-24T11:11:30.828Z,32.09
2018-07-24T11:16:35.894Z,30.59
2018-07-24T11:19:04.872Z,32.80
2018-07-24T11:21:33.946Z,32.14
2018-07-24T11:24:03.306Z,32.74
2018-07-24T11:26:32.429Z,29.36
2018-07-24T11:29:01.471Z,32.22
2018-07-24T11:34:06.084Z,27.89
2018-07-24T11:36:36.491Z,26.88
2018-07-24T11:39:05.541Z,27.51
2018-07-24T11:44:10.255Z,26.34
2018-07-24T11:46:39.311Z,29.95
2018-07-24T11:49:08.445Z,26.78
2018-07-24T11:51:37.557Z,29.99
2018-07-24T11:54:06.567Z,25.69
2018-07-24T11:59:11.308Z,24.45
2018-07-24T12:01:40.656Z,23.29
2018-07-24T12:04:09.875Z,25.05
2018-07-24T12:09:16.701Z,24.16
2018-07-24T12:11:45.995Z,29.38
2018-07-24T12:14:15.033Z,26.76
2018-07-24T12:16:44.102Z,26.26
2018-07-24T12:19:13.761Z,23.46
2018-07-24T12:21:42.814Z,22.92
2018-07-24T12:24:11.869Z,23.22
2018-07-24T12:26:41.238Z,23.89
2018-07-24T12:29:10.335Z,24.90
2018-07-24T12:31:43.171Z,28.51
2018-07-24T12:34:14.250Z,30.60
2018-07-24T12:36:46.359Z,32.33
2018-07-24T12:39:15.417Z,29.03
2018-07-24T12:41:45.753Z,28.99
2018-07-24T12:46:50.562Z,25.83
2018-07-24T12:51:55.960Z,28.96
2018-07-24T12:54:25.230Z,25.43
2018-07-24T12:56:54.281Z,22.12
2018-07-24T12:59:23.341Z,24.49
2018-07-24T13:01:52.677Z,24.65
2018-07-24T13:04:21.738Z,26.57
2018-07-24T13:06:50.789Z,23.12
2018-07-24T13:09:21.793Z,27.59
2018-07-24T13:11:52.408Z,24.92
2018-07-24T13:14:21.549Z,22.87
2018-07-24T13:16:50.588Z,22.42
2018-07-24T13:21:55.607Z,24.65
2018-07-24T13:27:00.492Z,27.82
2018-07-24T13:29:30.457Z,23.90
2018-07-24T13:32:00.101Z,22.10
2018-07-24T13:34:29.343Z,22.83
2018-07-24T13:36:58.383Z,24.59
2018-07-24T13:39:28.405Z,26.15
2018-07-24T13:41:57.683Z,24.71
2018-07-24T13:44:26.737Z,25.06
2018-07-24T13:49:33.963Z,28.45
2018-07-24T13:54:46.005Z,25.14
2018-07-24T13:57:15.475Z,23.62
2018-07-24T13:59:44.556Z,20.84
2018-07-24T14:04:49.411Z,21.57
2018-07-24T14:07:18.490Z,18.05
2018-07-24T14:09:47.535Z,21.29
2018-07-24T14:12:17.598Z,21.29
2018-07-24T14:14:46.655Z,23.22
2018-07-24T14:17:15.795Z,27.36
2018-07-24T14:19:44.851Z,26.44
2018-07-24T14:22:13.911Z,23.94
2018-07-24T14:27:19.825Z,22.08
2018-07-24T14:29:48.869Z,18.67
2018-07-24T14:32:19.293Z,22.12
2018-07-24T14:34:50.822Z,19.50
2018-07-24T14:37:19.872Z,21.11
2018-07-24T14:39:50.893Z,20.39
2018-07-24T14:42:21.937Z,21.84
2018-07-24T14:44:50.995Z,21.89
2018-07-24T14:47:20.222Z,20.30
2018-07-24T14:49:49.268Z,20.62
2018-07-24T14:52:18.471Z,18.57
2018-07-24T14:54:47.608Z,22.06
2018-07-24T14:57:17.268Z,19.94
2018-07-24T14:59:46.327Z,19.34
2018-07-24T15:02:15.377Z,18.23
2018-07-24T15:04:45.597Z,17.26
2018-07-24T15:07:16.684Z,19.17
2018-07-24T15:09:45.740Z,19.50
2018-07-24T15:12:16.765Z,19.24
2018-07-24T15:14:47.804Z,18.70
2018-07-24T15:17:16.861Z,18.88
2018-07-24T15:19:47.085Z,19.66
2018-07-24T15:22:17.059Z,20.65
2018-07-24T15:24:48.094Z,20.64
2018-07-24T15:27:17.190Z,21.96
2018-07-24T15:29:48.245Z,21.69
2018-07-24T15:32:17.412Z,20.54
2018-07-24T15:34:46.756Z,20.43
2018-07-24T15:37:15.754Z,18.84
2018-07-24T15:39:44.812Z,20.33
2018-07-24T15:42:14.319Z,19.68
2018-07-24T15:44:43.361Z,18.31
2018-07-24T15:47:12.449Z,17.88
2018-07-24T15:49:49.934Z,17.48
2018-07-24T15:52:19.967Z,17.52
2018-07-24T15:54:49.976Z,15.96
2018-07-24T15:57:19.073Z,16.56
2018-07-24T15:59:48.301Z,17.10
2018-07-24T16:02:18.357Z,17.15
2018-07-24T16:04:47.402Z,16.07
2018-07-24T16:07:16.490Z,18.10
2018-07-24T16:09:46.702Z,17.39
2018-07-24T16:12:16.047Z,16.55
2018-07-24T16:14:47.085Z,16.49
2018-07-24T16:17:18.137Z,18.84
2018-07-24T16:19:47.180Z,18.87
2018-07-24T16:22:16.392Z,18.70
2018-07-24T16:24:45.455Z,17.33
2018-07-24T16:27:14.503Z,19.32
2018-07-24T16:29:43.545Z,22.09
2018-07-24T16:32:12.734Z,23.97
2018-07-24T16:34:45.821Z,26.13
2018-07-24T16:37:17.191Z,25.90
2018-07-24T16:42:22.042Z,27.24
2018-07-24T16:44:52.108Z,27.61
2018-07-24T16:47:21.192Z,31.57
2018-07-24T16:49:50.236Z,29.52
2018-07-24T16:52:20.255Z,33.21
2018-07-24T16:54:49.941Z,31.66
2018-07-24T16:57:23.383Z,33.68
2018-07-24T16:59:54.568Z,37.66
2018-07-24T17:02:23.672Z,34.79
2018-07-24T17:04:52.701Z,33.49
2018-07-24T17:07:21.760Z,34.41
2018-07-24T17:09:50.836Z,35.63
2018-07-24T17:12:19.867Z,35.30
2018-07-24T17:14:48.927Z,35.25
2018-07-24T17:17:18.086Z,38.22
2018-07-24T17:19:47.617Z,36.30
2018-07-24T17:22:20.072Z,36.29
2018-07-24T17:24:49.123Z,38.76
2018-07-24T17:27:19.143Z,40.82
2018-07-24T17:29:48.177Z,39.96
2018-07-24T17:32:17.538Z,37.97
2018-07-24T17:34:46.628Z,41.44
2018-07-24T17:39:51.619Z,42.32
2018-07-24T17:42:20.664Z,43.38
2018-07-24T17:47:25.549Z,43.87
2018-07-24T17:49:54.603Z,46.09
2018-07-24T17:52:23.708Z,43.46
2018-07-24T17:54:53.110Z,47.25
2018-07-24T17:57:22.160Z,46.28
2018-07-24T17:59:51.298Z,45.02
2018-07-24T18:02:21.881Z,44.26
2018-07-24T18:04:54.029Z,47.99
2018-07-24T18:07:23.286Z,47.26
2018-07-24T18:12:28.611Z,46.31
2018-07-24T18:14:57.677Z,45.20
2018-07-24T18:17:26.732Z,46.27
2018-07-24T18:19:55.784Z,46.56
2018-07-24T18:25:01.685Z,50.02
2018-07-24T18:27:30.755Z,50.39
2018-07-24T18:29:59.803Z,55.79
2018-07-24T18:32:29.832Z,51.76
2018-07-24T18:34:59.079Z,55.38
2018-07-24T18:37:28.166Z,55.43
2018-07-24T18:39:57.245Z,53.99
2018-07-24T18:42:26.318Z,53.39
2018-07-24T18:44:56.466Z,57.35
2018-07-24T18:47:25.520Z,55.26
2018-07-24T18:49:54.588Z,58.50
2018-07-24T18:52:23.656Z,59.72
2018-07-24T18:54:54.661Z,60.81
2018-07-24T18:57:23.809Z,57.27
2018-07-24T18:59:53.051Z,58.40
2018-07-24T19:02:23.090Z,61.73
2018-07-24T19:07:28.024Z,62.17
2018-07-24T19:09:59.085Z,64.02
2018-07-24T19:15:03.982Z,69.42
2018-07-24T19:17:33.039Z,69.05
2018-07-24T19:20:04.109Z,71.54
2018-07-24T19:22:33.189Z,73.91
2018-07-24T19:27:38.052Z,67.47
2018-07-24T19:30:08.043Z,74.43
2018-07-24T19:32:37.129Z,72.83
2018-07-24T19:35:08.197Z,71.71
2018-07-24T19:40:13.077Z,76.80
2018-07-24T19:42:42.144Z,75.21
2018-07-24T19:45:15.130Z,74.79
2018-07-24T19:47:48.831Z,71.76
2018-07-24T19:50:17.905Z,71.34
2018-07-24T19:52:46.998Z,78.00
2018-07-24T19:55:16.054Z,77.25
2018-07-24T20:00:20.904Z,75.90
2018-07-24T20:05:25.661Z,83.50
2018-07-24T20:07:55.703Z,78.00
2018-07-24T20:10:27.841Z,83.97
2018-07-24T20:15:32.715Z,81.95
2018-07-24T20:18:01.786Z,82.46
2018-07-24T20:25:44.431Z,82.05
2018-07-24T20:28:13.534Z,81.90
2018-07-24T20:30:43.557Z,85.88
2018-07-24T20:35:48.432Z,81.97
2018-07-24T20:38:26.749Z,84.90
2018-07-24T20:40:57.774Z,86.46
2018-07-24T20:43:26.849Z,86.55
2018-07-24T20:45:55.913Z,85.23
2018-07-24T20:48:24.965Z,87.50
2018-07-24T20:56:07.717Z,86.74
2018-07-24T21:03:48.470Z,81.70
2018-07-24T21:08:54.281Z,82.95
2018-07-24T21:11:23.347Z,86.51
2018-07-24T21:13:52.421Z,88.13
2018-07-24T21:16:21.479Z,87.48
2018-07-24T21:18:50.552Z,91.35
2018-07-24T21:21:19.634Z,91.17
2018-07-24T21:23:48.695Z,91.92
2018-07-24T21:28:53.590Z,92.35
2018-07-24T21:31:23.643Z,92.76
2018-07-24T21:33:53.665Z,92.47
2018-07-24T21:36:23.718Z,89.91
2018-07-24T21:38:52.787Z,87.00
2018-07-24T21:41:21.886Z,90.48
2018-07-24T21:43:51.897Z,88.32
2018-07-24T21:46:21.076Z,90.72
2018-07-24T21:48:50.360Z,92.37
2018-07-24T21:51:20.325Z,92.03
2018-07-24T21:53:50.352Z,94.21
2018-07-24T21:56:19.409Z,93.77
2018-07-24T21:58:48.486Z,93.01
2018-07-24T22:01:18.473Z,93.32
2018-07-24T22:03:48.492Z,95.42
2018-07-24T22:06:22.202Z,95.29
2018-07-24T22:08:52.265Z,96.07
2018-07-24T22:11:21.282Z,94.88
2018-07-24T22:13:52.265Z,92.53
2018-07-24T22:16:23.313Z,93.15
2018-07-24T22:18:52.391Z,89.81
2018-07-24T22:21:21.436Z,88.47
2018-07-24T22:23:50.503Z,91.40
2018-07-24T22:26:20.554Z,90.78
2018-07-24T22:28:49.615Z,90.83
2018-07-24T22:31:18.673Z,94.40
2018-07-24T22:33:47.733Z,96.28
2018-07-24T22:36:16.854Z,93.62
2018-07-24T22:38:45.928Z,91.50
2018-07-24T22:41:16.965Z,92.87
2018-07-24T22:43:46.996Z,91.78
2018-07-24T22:46:19.869Z,91.72
2018-07-24T22:48:50.920Z,91.15
2018-07-24T22:51:19.983Z,92.02
2018-07-24T22:53:49.045Z,90.53
2018-07-24T23:01:29.745Z,89.30
2018-07-24T23:03:58.861Z,91.81
2018-07-24T23:09:03.698Z,92.60
2018-07-24T23:11:34.707Z,93.21
2018-07-24T23:14:03.795Z,94.73
2018-07-24T23:16:33.837Z,94.00
2018-07-24T23:19:02.902Z,93.54
2018-07-24T23:21:33.981Z,94.68
2018-07-24T23:24:03.056Z,91.54
2018-07-24T23:26:34.127Z,93.44
2018-07-24T23:29:03.195Z,93.09
2018-07-24T23:31:32.414Z,94.55
2018-07-24T23:36:37.213Z,93.71
2018-07-24T23:39:06.292Z,93.95
2018-07-24T23:41:35.509Z,96.65
2018-07-24T23:46:40.356Z,93.92
2018-07-24T23:51:45.222Z,93.07
2018-07-24T23:54:14.275Z,93.31
